createdAt,value
2023-03-02T00:02:33.313Z,-1.81
2023-03-02T00:05:43.020Z,-1.82
2023-03-02T00:08:51.384Z,-1.77
2023-03-02T00:12:01.150Z,-1.76
2023-03-02T00:15:11.319Z,-1.74
2023-03-02T00:18:19.483Z,-1.77
2023-03-02T00:21:28.114Z,-1.74
2023-03-02T00:24:36.347Z,-1.73
2023-03-02T00:27:46.720Z,-1.45
2023-03-02T00:30:54.874Z,-1.27
2023-03-02T00:34:03.013Z,-1.02
2023-03-02T00:37:11.494Z,-0.93
2023-03-02T00:40:19.899Z,-0.89
2023-03-02T00:43:29.864Z,-0.96
2023-03-02T00:46:38.401Z,-1.16
2023-03-02T00:49:49.276Z,-1.35
2023-03-02T00:52:57.524Z,-1.38
2023-03-02T00:56:07.838Z,-1.32
2023-03-02T00:59:30.466Z,-1.28
2023-03-02T01:02:46.064Z,-1.27
2023-03-02T01:05:58.670Z,-1.21
2023-03-02T01:09:07.338Z,-1.13
2023-03-02T01:12:16.595Z,-0.96
2023-03-02T01:15:26.922Z,-0.94
2023-03-02T01:18:38.770Z,-0.91
2023-03-02T01:21:47.666Z,-0.90
2023-03-02T01:24:56.152Z,-0.97
2023-03-02T01:28:04.708Z,-1.02
2023-03-02T01:31:14.240Z,-0.85
2023-03-02T01:34:22.402Z,-0.84
2023-03-02T01:37:31.142Z,-0.67
2023-03-02T01:40:39.672Z,-0.61
2023-03-02T01:43:47.894Z,-0.54
2023-03-02T01:46:57.436Z,-0.44
2023-03-02T01:50:20.535Z,-0.35
2023-03-02T01:53:34.030Z,-0.27
2023-03-02T01:56:45.360Z,-0.29
2023-03-02T02:00:00.857Z,-0.26
2023-03-02T02:03:20.907Z,-0.36
2023-03-02T02:06:37.972Z,-0.38
2023-03-02T02:09:52.742Z,-0.47
2023-03-02T02:13:01.586Z,-0.55
2023-03-02T02:16:10.264Z,-0.63
2023-03-02T02:19:38.615Z,-0.59
2023-03-02T02:23:00.508Z,-0.51
2023-03-02T02:26:18.774Z,-0.62
2023-03-02T02:29:33.196Z,-0.58
2023-03-02T02:32:44.395Z,-0.56
2023-03-02T02:36:05.967Z,-0.77
2023-03-02T02:39:21.886Z,-0.88
2023-03-02T02:42:36.242Z,-0.74
2023-03-02T02:45:46.052Z,-0.82
2023-03-02T02:48:54.962Z,-1.03
2023-03-02T02:52:05.452Z,-1.00
2023-03-02T02:55:21.054Z,-1.23
2023-03-02T02:58:38.916Z,-1.21
2023-03-02T03:01:48.748Z,-1.18
2023-03-02T03:05:02.991Z,-1.08
2023-03-02T03:08:53.088Z,-1.32
2023-03-02T03:12:17.023Z,-1.39
2023-03-02T03:15:26.596Z,-1.29
2023-03-02T03:18:35.054Z,-1.29
2023-03-02T03:21:43.959Z,-1.25
2023-03-02T03:24:52.618Z,-1.28
2023-03-02T03:28:03.965Z,-1.32
2023-03-02T03:31:15.403Z,-1.41
2023-03-02T03:34:25.373Z,-1.43
2023-03-02T03:37:33.934Z,-1.60
2023-03-02T03:40:42.070Z,-1.75
2023-03-02T03:43:50.583Z,-1.93
2023-03-02T03:47:01.556Z,-2.06
2023-03-02T03:50:11.679Z,-2.17
2023-03-02T03:53:20.797Z,-2.04
2023-03-02T03:56:29.755Z,-2.15
2023-03-02T03:59:38.310Z,-2.08
2023-03-02T04:02:50.340Z,-2.11
2023-03-02T04:05:59.326Z,-2.08
2023-03-02T04:09:08.236Z,-2.00
2023-03-02T04:12:17.140Z,-1.97
2023-03-02T04:15:33.530Z,-1.88
2023-03-02T04:18:44.135Z,-2.04
2023-03-02T04:21:55.744Z,-1.96
2023-03-02T04:25:05.388Z,-2.09
2023-03-02T04:28:15.981Z,-2.09
2023-03-02T04:31:26.674Z,-2.12
2023-03-02T04:34:36.517Z,-2.09
2023-03-02T04:37:47.085Z,-1.95
2023-03-02T04:40:55.735Z,-1.94
2023-03-02T04:44:04.094Z,-2.04
2023-03-02T04:47:12.843Z,-2.29
2023-03-02T04:50:24.386Z,-2.31
2023-03-02T04:53:32.707Z,-2.20
2023-03-02T04:56:41.329Z,-2.14
2023-03-02T04:59:49.488Z,-2.30
2023-03-02T05:02:58.237Z,-2.52
2023-03-02T05:06:08.795Z,-2.56
2023-03-02T05:09:17.533Z,-2.62
2023-03-02T05:12:25.724Z,-2.62
2023-03-02T05:15:38.051Z,-2.54
2023-03-02T05:18:47.929Z,-2.63
2023-03-02T05:21:57.723Z,-2.39
2023-03-02T05:25:09.561Z,-2.35
2023-03-02T05:28:18.449Z,-2.65
2023-03-02T05:31:34.965Z,-2.65
2023-03-02T05:34:43.413Z,-2.77
2023-03-02T05:37:53.224Z,-2.90
2023-03-02T05:41:01.740Z,-2.77
2023-03-02T05:44:12.072Z,-2.80
2023-03-02T05:47:22.436Z,-2.74
2023-03-02T05:50:31.417Z,-2.67
2023-03-02T05:53:40.923Z,-2.55
2023-03-02T05:56:50.359Z,-2.71
2023-03-02T05:59:58.839Z,-2.58
2023-03-02T06:03:07.133Z,-2.60
2023-03-02T06:06:15.419Z,-2.56
2023-03-02T06:09:25.796Z,-2.44
2023-03-02T06:12:34.906Z,-2.31
2023-03-02T06:15:43.943Z,-2.23
2023-03-02T06:18:52.293Z,-2.09
2023-03-02T06:22:00.576Z,-1.99
2023-03-02T06:25:12.239Z,-1.92
2023-03-02T06:28:21.924Z,-1.80
2023-03-02T06:31:31.124Z,-1.64
2023-03-02T06:34:39.552Z,-1.54
2023-03-02T06:37:49.274Z,-1.55
2023-03-02T06:41:00.153Z,-1.55
2023-03-02T06:44:08.520Z,-1.70
2023-03-02T06:47:16.681Z,-1.80
2023-03-02T06:50:25.147Z,-2.08
2023-03-02T06:53:33.348Z,-2.12
2023-03-02T06:56:43.124Z,-2.05
2023-03-02T06:59:52.344Z,-1.83
2023-03-02T07:03:00.488Z,-1.60
2023-03-02T07:06:12.447Z,-1.40
2023-03-02T07:09:20.743Z,-1.22
2023-03-02T07:12:30.507Z,-1.13
2023-03-02T07:15:41.045Z,-0.79
2023-03-02T07:18:49.446Z,-0.77
2023-03-02T07:21:58.093Z,-0.90
2023-03-02T07:25:08.755Z,-1.08
2023-03-02T07:28:18.503Z,-0.95
2023-03-02T07:31:27.116Z,-0.86
2023-03-02T07:34:35.321Z,-0.59
2023-03-02T07:37:44.072Z,-0.63
2023-03-02T07:40:52.839Z,-0.67
2023-03-02T07:44:02.540Z,-0.29
2023-03-02T07:47:11.032Z,-0.39
2023-03-02T07:50:19.736Z,-0.41
2023-03-02T07:53:28.240Z,-0.20
2023-03-02T07:56:36.543Z,0.28
2023-03-02T07:59:46.094Z,0.37
2023-03-02T08:02:54.496Z,0.48
2023-03-02T08:06:11.035Z,0.48
2023-03-02T08:09:19.436Z,0.55
2023-03-02T08:12:27.637Z,0.60
2023-03-02T08:15:37.267Z,0.80
2023-03-02T08:18:45.864Z,0.97
2023-03-02T08:21:54.104Z,0.96
2023-03-02T08:25:02.525Z,1.03
2023-03-02T08:28:10.771Z,1.10
2023-03-02T08:31:22.028Z,1.29
2023-03-02T08:34:30.538Z,1.41
2023-03-02T08:37:39.014Z,1.60
2023-03-02T08:40:47.554Z,1.61
2023-03-02T08:43:57.582Z,1.67
2023-03-02T08:47:07.402Z,1.69
2023-03-02T08:50:16.315Z,1.59
2023-03-02T08:53:25.160Z,2.20
2023-03-02T08:56:37.357Z,2.80
2023-03-02T08:59:45.809Z,3.21
2023-03-02T09:02:56.799Z,3.66
2023-03-02T09:06:05.820Z,3.98
2023-03-02T09:09:16.351Z,3.92
2023-03-02T09:12:24.774Z,3.97
2023-03-02T09:15:33.280Z,3.96
2023-03-02T09:18:44.103Z,4.08
2023-03-02T09:21:52.651Z,4.30
2023-03-02T09:25:01.834Z,4.26
2023-03-02T09:28:10.697Z,4.44
2023-03-02T09:31:18.967Z,4.76
2023-03-02T09:34:30.642Z,4.85
2023-03-02T09:37:39.100Z,4.92
2023-03-02T09:41:16.874Z,5.06
2023-03-02T09:45:01.652Z,5.24
2023-03-02T09:48:23.185Z,5.13
2023-03-02T09:51:43.418Z,5.24
2023-03-02T09:54:52.572Z,5.36
2023-03-02T09:58:04.459Z,5.63
2023-03-02T10:01:21.737Z,5.63
2023-03-02T10:04:34.019Z,5.54
2023-03-02T10:07:44.300Z,5.54
2023-03-02T10:11:01.051Z,5.61
2023-03-02T10:14:20.734Z,5.84
2023-03-02T10:17:51.913Z,5.86
2023-03-02T10:21:07.348Z,5.97
2023-03-02T10:24:29.119Z,5.93
2023-03-02T10:27:42.687Z,6.27
2023-03-02T10:30:59.311Z,6.32
2023-03-02T10:34:11.657Z,6.50
2023-03-02T10:37:24.950Z,6.65
2023-03-02T10:40:45.446Z,6.67
2023-03-02T10:43:58.721Z,6.79
2023-03-02T10:47:08.553Z,6.97
2023-03-02T10:50:23.969Z,7.02
2023-03-02T10:53:32.567Z,7.09
2023-03-02T10:56:45.137Z,7.09
2023-03-02T10:59:54.468Z,7.12
2023-03-02T11:03:07.135Z,7.13
2023-03-02T11:06:22.510Z,6.99
2023-03-02T11:09:30.699Z,6.85
2023-03-02T11:12:48.993Z,7.16
2023-03-02T11:16:00.778Z,7.31
2023-03-02T11:19:16.699Z,7.44
2023-03-02T11:22:38.979Z,7.49
2023-03-02T11:25:55.397Z,7.39
2023-03-02T11:29:15.151Z,7.35
2023-03-02T11:32:33.089Z,7.39
2023-03-02T11:35:52.588Z,7.42
2023-03-02T11:39:01.423Z,7.42
2023-03-02T11:42:21.481Z,7.35
2023-03-02T11:45:36.405Z,7.30
2023-03-02T11:48:50.428Z,7.46
2023-03-02T11:52:02.219Z,7.62
2023-03-02T11:55:22.411Z,7.69
2023-03-02T11:58:32.796Z,7.79
2023-03-02T12:01:45.486Z,7.68
2023-03-02T12:05:05.828Z,7.33
2023-03-02T12:08:36.602Z,7.52
2023-03-02T12:11:47.587Z,7.58
2023-03-02T12:14:56.019Z,7.66
2023-03-02T12:18:31.192Z,7.91
2023-03-02T12:21:43.658Z,7.88
2023-03-02T12:25:03.838Z,7.92
2023-03-02T12:28:30.727Z,7.97
2023-03-02T12:31:46.744Z,7.97
2023-03-02T12:35:04.301Z,8.05
2023-03-02T12:38:30.914Z,8.02
2023-03-02T12:42:16.315Z,8.01
2023-03-02T12:45:47.090Z,8.05
2023-03-02T12:49:16.804Z,8.15
2023-03-02T12:52:32.376Z,8.19
2023-03-02T12:55:40.615Z,8.25
2023-03-02T12:58:54.204Z,8.14
2023-03-02T13:02:14.848Z,8.32
2023-03-02T13:05:31.415Z,8.37
2023-03-02T13:08:45.546Z,8.46
2023-03-02T13:11:55.175Z,8.47
2023-03-02T13:15:03.713Z,8.42
2023-03-02T13:18:13.092Z,8.22
2023-03-02T13:21:22.921Z,8.26
2023-03-02T13:24:51.026Z,8.20
2023-03-02T13:28:07.686Z,8.23
2023-03-02T13:31:23.087Z,8.32
2023-03-02T13:34:32.148Z,8.33
2023-03-02T13:37:43.974Z,8.28
2023-03-02T13:40:56.282Z,8.20
2023-03-02T13:44:20.456Z,8.18
2023-03-02T13:47:28.645Z,8.15
2023-03-02T13:50:37.128Z,8.19
2023-03-02T13:53:54.771Z,8.11
2023-03-02T13:57:07.309Z,8.23
2023-03-02T14:00:21.908Z,8.24
2023-03-02T14:03:32.286Z,8.12
2023-03-02T14:06:40.844Z,7.91
2023-03-02T14:09:49.844Z,7.64
2023-03-02T14:13:06.137Z,7.60
2023-03-02T14:16:17.581Z,7.64
2023-03-02T14:19:26.121Z,7.58
2023-03-02T14:22:35.652Z,7.56
2023-03-02T14:25:43.962Z,7.52
2023-03-02T14:29:04.893Z,7.49
2023-03-02T14:32:17.456Z,7.40
2023-03-02T14:35:27.125Z,7.43
2023-03-02T14:38:36.544Z,7.44
2023-03-02T14:41:53.328Z,7.39
2023-03-02T14:45:03.822Z,7.36
2023-03-02T14:48:12.286Z,7.29
2023-03-02T14:51:27.853Z,7.25
2023-03-02T14:54:42.380Z,7.14
2023-03-02T14:57:56.872Z,7.00
2023-03-02T15:01:07.258Z,7.01
2023-03-02T15:04:15.780Z,6.79
2023-03-02T15:07:27.120Z,6.52
2023-03-02T15:10:35.707Z,6.48
2023-03-02T15:13:45.742Z,6.37
2023-03-02T15:16:55.872Z,6.30
2023-03-02T15:20:04.424Z,6.21
2023-03-02T15:23:12.875Z,5.92
2023-03-02T15:26:21.649Z,5.80
2023-03-02T15:29:29.965Z,5.60
2023-03-02T15:32:39.759Z,5.35
2023-03-02T15:35:55.386Z,5.30
2023-03-02T15:39:04.635Z,5.14
2023-03-02T15:42:14.075Z,4.97
2023-03-02T15:45:22.507Z,4.88
2023-03-02T15:48:32.252Z,4.75
2023-03-02T15:51:40.467Z,4.64
2023-03-02T15:54:49.073Z,4.57
2023-03-02T15:58:00.035Z,4.56
2023-03-02T16:01:10.516Z,4.40
2023-03-02T16:04:20.734Z,4.19
2023-03-02T16:07:29.205Z,4.12
2023-03-02T16:10:37.481Z,4.08
2023-03-02T16:13:46.091Z,3.97
2023-03-02T16:16:55.574Z,3.82
2023-03-02T16:20:06.210Z,3.79
2023-03-02T16:23:15.966Z,3.72
2023-03-02T16:26:24.691Z,3.47
2023-03-02T16:29:34.477Z,3.36
2023-03-02T16:32:42.988Z,3.26
2023-03-02T16:35:52.916Z,3.14
2023-03-02T16:39:01.145Z,2.97
2023-03-02T16:42:09.335Z,2.96
2023-03-02T16:45:19.788Z,2.87
2023-03-02T16:48:27.990Z,2.68
2023-03-02T16:51:38.766Z,2.75
2023-03-02T16:54:47.388Z,2.61
2023-03-02T16:57:55.868Z,2.44
2023-03-02T17:01:05.333Z,2.43
2023-03-02T17:04:13.749Z,2.19
2023-03-02T17:07:23.366Z,2.25
2023-03-02T17:10:31.862Z,2.02
2023-03-02T17:13:40.364Z,1.99
2023-03-02T17:16:48.961Z,2.04
2023-03-02T17:19:57.943Z,1.98
2023-03-02T17:23:11.895Z,1.80
2023-03-02T17:26:20.408Z,1.60
2023-03-02T17:29:28.916Z,1.66
2023-03-02T17:32:37.189Z,1.59
2023-03-02T17:35:46.182Z,1.54
2023-03-02T17:38:55.737Z,1.70
2023-03-02T17:42:04.403Z,1.50
2023-03-02T17:45:20.112Z,1.63
2023-03-02T17:48:28.614Z,1.50
2023-03-02T17:51:37.891Z,1.46
2023-03-02T17:54:47.439Z,1.59
2023-03-02T17:58:01.402Z,1.59
2023-03-02T18:01:10.643Z,1.51
2023-03-02T18:04:18.975Z,1.51
2023-03-02T18:07:27.495Z,1.48
2023-03-02T18:10:36.985Z,1.24
2023-03-02T18:13:45.268Z,1.37
2023-03-02T18:16:53.973Z,1.15
2023-03-02T18:20:02.096Z,1.05
2023-03-02T18:23:10.284Z,0.91
2023-03-02T18:26:19.836Z,0.96
2023-03-02T18:29:27.923Z,0.84
2023-03-02T18:32:36.115Z,0.91
2023-03-02T18:35:44.484Z,0.85
2023-03-02T18:38:54.408Z,0.78
2023-03-02T18:42:04.442Z,0.73
2023-03-02T18:45:26.369Z,0.86
2023-03-02T18:48:34.750Z,0.83
2023-03-02T18:51:46.507Z,0.70
2023-03-02T18:54:59.782Z,0.83
2023-03-02T18:58:20.963Z,0.61
2023-03-02T19:01:32.482Z,0.64
2023-03-02T19:04:42.292Z,0.68
2023-03-02T19:07:50.923Z,0.73
2023-03-02T19:10:59.424Z,0.77
2023-03-02T19:14:09.016Z,0.83
2023-03-02T19:17:17.189Z,0.76
2023-03-02T19:20:27.150Z,0.52
2023-03-02T19:23:35.752Z,0.50
2023-03-02T19:26:44.004Z,0.42
2023-03-02T19:29:54.034Z,0.58
2023-03-02T19:33:03.566Z,0.44
2023-03-02T19:36:12.736Z,0.40
2023-03-02T19:39:20.929Z,0.38
2023-03-02T19:42:30.415Z,0.33
2023-03-02T19:45:40.077Z,0.30
2023-03-02T19:48:49.288Z,0.53
2023-03-02T19:51:58.988Z,0.46
2023-03-02T19:55:10.804Z,0.40
2023-03-02T19:58:19.839Z,0.21
2023-03-02T20:01:30.006Z,0.41
2023-03-02T20:04:38.141Z,0.30
2023-03-02T20:07:46.662Z,0.13
2023-03-02T20:10:55.002Z,0.24
2023-03-02T20:14:03.427Z,0.38
2023-03-02T20:17:13.278Z,0.30
2023-03-02T20:20:21.360Z,0.13
2023-03-02T20:23:29.617Z,0.28
2023-03-02T20:26:37.839Z,0.12
2023-03-02T20:29:46.617Z,-0.03
2023-03-02T20:32:57.236Z,0.33
2023-03-02T20:36:06.600Z,0.28
2023-03-02T20:39:20.813Z,0.38
2023-03-02T20:42:31.157Z,0.32
2023-03-02T20:45:40.065Z,0.33
2023-03-02T20:48:50.537Z,0.31
2023-03-02T20:52:00.800Z,0.31
2023-03-02T20:55:11.235Z,0.33
2023-03-02T20:58:19.521Z,0.16
2023-03-02T21:01:29.700Z,0.13
2023-03-02T21:04:39.314Z,0.01
2023-03-02T21:07:48.447Z,-0.05
2023-03-02T21:10:56.568Z,0.09
2023-03-02T21:14:06.050Z,0.01
2023-03-02T21:17:14.348Z,-0.17
2023-03-02T21:20:25.869Z,-0.16
2023-03-02T21:23:34.193Z,-0.08
2023-03-02T21:26:44.238Z,-0.13
2023-03-02T21:29:52.474Z,-0.25
2023-03-02T21:33:00.804Z,-0.26
2023-03-02T21:36:17.434Z,-0.34
2023-03-02T21:39:25.648Z,-0.30
2023-03-02T21:42:33.830Z,-0.20
2023-03-02T21:45:42.596Z,-0.23
2023-03-02T21:48:52.169Z,-0.24
2023-03-02T21:52:01.719Z,-0.44
2023-03-02T21:55:13.200Z,-0.36
2023-03-02T21:58:22.126Z,-0.43
2023-03-02T22:01:32.811Z,-0.19
2023-03-02T22:04:41.626Z,-0.35
2023-03-02T22:07:51.230Z,-0.48
2023-03-02T22:10:59.461Z,-0.58
2023-03-02T22:14:14.777Z,-0.44
2023-03-02T22:17:24.913Z,-0.48
2023-03-02T22:20:33.423Z,-0.56
2023-03-02T22:23:43.027Z,-0.31
2023-03-02T22:26:58.986Z,-0.23
2023-03-02T22:30:20.284Z,-0.51
2023-03-02T22:33:30.540Z,-0.55
2023-03-02T22:36:38.715Z,-0.57
2023-03-02T22:39:49.767Z,-0.43
2023-03-02T22:43:13.409Z,-0.55
2023-03-02T22:46:22.866Z,-0.34
2023-03-02T22:49:31.466Z,-0.45
2023-03-02T22:52:43.019Z,-0.57
2023-03-02T22:55:58.066Z,-0.64
2023-03-02T22:59:18.456Z,-0.38
2023-03-02T23:02:26.818Z,-0.50
2023-03-02T23:05:36.507Z,-0.58
2023-03-02T23:08:45.278Z,-0.72
2023-03-02T23:11:59.913Z,-0.77
2023-03-02T23:15:20.423Z,-0.64
2023-03-02T23:18:33.136Z,-0.79
2023-03-02T23:21:46.792Z,-0.80
2023-03-02T23:24:55.181Z,-0.84
2023-03-02T23:28:04.992Z,-0.80
2023-03-02T23:31:13.432Z,-0.68
2023-03-02T23:34:21.812Z,-0.69
2023-03-02T23:37:30.005Z,-0.81
2023-03-02T23:40:38.160Z,-0.79
2023-03-02T23:43:47.845Z,-0.76
2023-03-02T23:46:55.976Z,-0.85
2023-03-02T23:50:04.099Z,-0.85
2023-03-02T23:53:13.458Z,-0.95
2023-03-02T23:56:22.155Z,-0.95
